Time;durP1;ratioP1;P1;durP2;ratioP2;P2;SDS_P1;SDS_P2;PMS_P1;PMS_P2;Temp;Humidity;BMP_temperature;BMP_pressure;BME280_temperature;BME280_humidity;BME280_pressure;Samples;Min_cycle;Max_cycle;Signal;HPM_P1;HPM_P2
2024/02/04 00:01:17;;;;;;;;;7.00;4.75;;;;;11.76;79.00;102525.31;5040991;28;45395;-64
2024/02/04 00:03:42;;;;;;;;;59.25;44.75;;;;;11.76;78.70;102530.56;5040511;28;73425;-64
2024/02/04 00:06:08;;;;;;;;;25.25;19.25;;;;;11.77;78.59;102530.56;5038920;28;73246;-65
2024/02/04 00:08:33;;;;;;;;;6.00;4.00;;;;;11.80;78.92;102531.44;5072958;28;66409;-65
2024/02/04 00:10:58;;;;;;;;;7.25;5.00;;;;;11.82;78.18;102534.91;5040188;28;71202;-65
2024/02/04 00:13:24;;;;;;;;;4.25;4.00;;;;;11.82;78.13;102533.16;5041725;28;69869;-64
2024/02/04 00:15:49;;;;;;;;;3.25;3.25;;;;;11.84;77.98;102533.16;5040990;28;45507;-65
2024/02/04 00:18:14;;;;;;;;;3.25;3.25;;;;;11.86;78.01;102534.88;5041472;28;45513;-65
2024/02/04 00:20:40;;;;;;;;;6.50;4.50;;;;;11.89;78.02;102536.66;5056593;28;46323;-65
2024/02/04 00:23:05;;;;;;;;;4.00;3.00;;;;;11.92;78.21;102534.91;5040659;28;53401;-64
2024/02/04 00:25:30;;;;;;;;;4.00;4.00;;;;;11.94;77.63;102529.66;5040708;28;47624;-64
2024/02/04 00:27:56;;;;;;;;;5.00;3.25;;;;;11.96;77.54;102543.66;5040107;28;45261;-65
2024/02/04 00:30:21;;;;;;;;;7.50;4.75;;;;;11.98;77.36;102534.00;5056646;28;45507;-65
2024/02/04 00:32:46;;;;;;;;;4.50;3.75;;;;;11.98;77.75;102527.91;5040302;28;67366;-65
2024/02/04 00:35:12;;;;;;;;;5.50;4.50;;;;;12.01;77.45;102528.75;5040162;28;65169;-65
2024/02/04 00:37:37;;;;;;;;;14.00;10.75;;;;;12.03;77.61;102527.00;5040846;28;45437;-65
2024/02/04 00:40:03;;;;;;;;;23.00;16.75;;;;;12.03;77.10;102528.75;5045244;28;73322;-65
2024/02/04 00:42:29;;;;;;;;;10.25;7.75;;;;;12.03;77.02;102529.63;5040901;28;45496;-65
2024/02/04 00:44:54;;;;;;;;;3.00;3.00;;;;;12.03;76.99;102532.25;5039614;28;73097;-65
2024/02/04 00:47:19;;;;;;;;;7.50;4.75;;;;;12.04;77.22;102531.38;5041451;28;45263;-64
2024/02/04 00:49:45;;;;;;;;;4.75;1.50;;;;;12.02;77.14;102527.00;5040436;28;50333;-64
2024/02/04 00:52:10;;;;;;;;;5.25;2.25;;;;;12.04;76.42;102525.22;5055226;28;75454;-64
2024/02/04 00:54:35;;;;;;;;;6.75;3.50;;;;;12.02;76.60;102530.47;5039550;28;60620;-64
2024/02/04 00:57:01;;;;;;;;;3.75;3.00;;;;;12.02;76.78;102527.00;5040017;28;58482;-65
2024/02/04 00:59:26;;;;;;;;;5.50;2.50;;;;;12.00;76.53;102526.13;5040019;28;56346;-65
2024/02/04 01:01:51;;;;;;;;;4.50;1.75;;;;;12.01;76.23;102528.75;5040376;28;70433;-65
2024/02/04 01:04:16;;;;;;;;;4.00;3.00;;;;;12.00;76.20;102523.50;5038837;28;62379;-66
2024/02/04 01:06:42;;;;;;;;;4.75;2.75;;;;;12.01;76.35;102527.91;5039802;28;68030;-65
2024/02/04 01:09:07;;;;;;;;;2.75;2.00;;;;;11.99;76.44;102525.28;5040015;28;47807;-65
2024/02/04 01:11:33;;;;;;;;;1.00;1.00;;;;;12.00;76.26;102523.50;5040125;28;49453;-65
2024/02/04 01:13:59;;;;;;;;;5.00;2.00;;;;;11.98;76.41;102520.03;5055759;28;45296;-66
2024/02/04 01:16:24;;;;;;;;;2.25;1.75;;;;;12.01;76.24;102525.28;5038255;28;66717;-64
2024/02/04 01:18:49;;;;;;;;;4.50;1.00;;;;;12.00;76.25;102532.25;5037888;28;71950;-64
2024/02/04 01:21:15;;;;;;;;;4.50;2.00;;;;;12.01;75.90;102530.53;5040784;28;66569;-65
2024/02/04 01:23:40;;;;;;;;;2.00;2.00;;;;;11.99;76.36;102530.53;5054691;28;63556;-64
2024/02/04 01:26:05;;;;;;;;;2.00;1.25;;;;;12.01;76.26;102530.53;5039356;28;69301;-65
2024/02/04 01:28:31;;;;;;;;;3.00;1.00;;;;;12.01;76.25;102523.50;5038256;28;45612;-65
2024/02/04 01:30:56;;;;;;;;;8.25;3.00;;;;;12.00;76.34;102521.75;5039704;28;45587;-64
2024/02/04 01:33:21;;;;;;;;;2.00;1.00;;;;;11.98;76.37;102522.66;5039943;28;45327;-64
2024/02/04 01:35:47;;;;;;;;;3.00;1.25;;;;;11.96;76.53;102522.66;5040324;28;45276;-65
2024/02/04 01:38:12;;;;;;;;;2.75;2.00;;;;;11.94;76.52;102521.78;5039851;28;45363;-65
2024/02/04 01:40:38;;;;;;;;;3.25;1.00;;;;;11.94;76.54;102521.78;5041030;28;45978;-65
2024/02/04 01:43:03;;;;;;;;;2.00;1.00;;;;;11.91;76.88;102509.53;5038823;28;73195;-65
2024/02/04 01:45:28;;;;;;;;;4.00;1.00;;;;;11.90;76.80;102507.81;5040298;28;45265;-65
2024/02/04 01:47:54;;;;;;;;;4.50;0.25;;;;;11.88;77.10;102504.28;5038200;28;58245;-65
2024/02/04 01:50:20;;;;;;;;;1.00;1.00;;;;;11.86;77.47;102500.78;5072393;28;46056;-65
2024/02/04 01:52:46;;;;;;;;;2.00;1.00;;;;;11.85;77.72;102490.31;5039542;28;45790;-65
2024/02/04 01:55:12;;;;;;;;;1.00;1.00;;;;;11.84;77.48;102485.94;5040607;28;45308;-66
2024/02/04 01:57:37;;;;;;;;;1.00;1.00;;;;;11.84;77.78;102488.56;5057406;28;67917;-65
2024/02/04 02:00:04;;;;;;;;;1.75;1.00;;;;;11.81;77.93;102473.72;5038440;28;48265;-65
2024/02/04 02:02:30;;;;;;;;;1.75;1.00;;;;;11.82;77.86;102474.59;5037604;28;45365;-65
2024/02/04 02:04:57;;;;;;;;;3.00;0.75;;;;;11.80;77.61;102473.72;5039932;28;45279;-65
2024/02/04 02:07:27;;;;;;;;;2.25;1.00;;;;;11.78;77.80;102468.47;5039186;28;52393;-64
2024/02/04 02:09:52;;;;;;;;;3.00;1.75;;;;;11.77;78.02;102467.63;5039597;28;46056;-65
2024/02/04 02:12:21;;;;;;;;;4.25;1.00;;;;;11.80;78.25;102471.09;5078433;27;68383;-65
2024/02/04 02:14:57;;;;;;;;;1.75;1.75;;;;;11.80;77.89;102458.00;5038585;28;45506;-64
2024/02/04 02:17:33;;;;;;;;;1.25;1.00;;;;;11.80;78.31;102455.38;5021350;28;45363;-64
2024/02/04 02:20:07;;;;;;;;;1.00;1.00;;;;;11.82;77.96;102454.47;5054140;28;46209;-65
2024/02/04 02:23:16;;;;;;;;;0.50;0.50;;;;;11.81;78.11;102443.97;5038022;28;45277;-64
2024/02/04 02:25:42;;;;;;;;;2.75;1.00;;;;;11.81;78.36;102429.13;5065768;28;45288;-65
2024/02/04 02:28:07;;;;;;;;;2.75;1.00;;;;;11.84;77.88;102441.34;5058164;28;46184;-64
2024/02/04 02:30:32;;;;;;;;;2.00;0.00;;;;;11.82;77.91;102449.22;5038978;28;46099;-66
2024/02/04 02:32:58;;;;;;;;;2.25;1.00;;;;;11.81;78.32;102455.38;5040807;28;64932;-65
2024/02/04 02:35:23;;;;;;;;;3.50;1.75;;;;;11.83;78.19;102456.22;5039735;28;49973;-65
2024/02/04 02:37:59;;;;;;;;;1.75;1.00;;;;;11.85;78.02;102457.09;5053636;28;73015;-65
2024/02/04 02:40:28;;;;;;;;;0.25;0.25;;;;;11.87;77.99;102457.06;5050456;28;45484;-65
2024/02/04 02:42:54;;;;;;;;;0.50;0.50;;;;;11.85;77.76;102451.84;5039359;28;45308;-64
2024/02/04 02:45:22;;;;;;;;;1.00;1.00;;;;;11.84;77.79;102457.09;5025790;28;70819;-64
2024/02/04 02:47:48;;;;;;;;;1.00;0.25;;;;;11.82;77.89;102453.59;5038478;28;45407;-64
2024/02/04 02:50:13;;;;;;;;;2.75;1.00;;;;;11.80;79.38;102453.59;5037967;28;46035;-65
2024/02/04 02:52:39;;;;;;;;;1.00;1.00;;;;;11.80;79.02;102442.25;5040403;28;67020;-65
2024/02/04 02:55:04;;;;;;;;;2.00;1.00;;;;;11.78;78.81;102453.59;5041857;28;63253;-67
2024/02/04 02:57:30;;;;;;;;;0.50;0.50;;;;;11.76;78.94;102444.00;5044786;28;45303;-64
2024/02/04 02:59:55;;;;;;;;;0.00;0.00;;;;;11.77;79.36;102444.00;5043548;28;63883;-64
2024/02/04 03:02:20;;;;;;;;;1.50;1.00;;;;;11.77;79.25;102440.50;5048505;28;48578;-65
2024/02/04 03:04:46;;;;;;;;;1.00;1.00;;;;;11.75;79.63;102440.50;5044937;28;45501;-64
2024/02/04 03:07:11;;;;;;;;;0.00;0.00;;;;;11.76;79.28;102447.50;5042432;28;72924;-64
2024/02/04 03:09:36;;;;;;;;;4.25;0.25;;;;;11.76;79.33;102446.63;5073815;28;67349;-65
2024/02/04 03:12:02;;;;;;;;;2.00;1.00;;;;;11.73;79.66;102451.88;5042231;28;45279;-65
2024/02/04 03:14:27;;;;;;;;;3.25;1.00;;;;;11.71;79.84;102444.03;5042473;28;45341;-65
2024/02/04 03:16:52;;;;;;;;;0.00;0.00;;;;;11.72;80.47;102448.41;5041462;28;63176;-65
2024/02/04 03:19:18;;;;;;;;;1.00;1.00;;;;;11.73;79.81;102446.66;5046023;28;75324;-65
2024/02/04 03:21:43;;;;;;;;;0.00;0.00;;;;;11.72;80.47;102452.75;5041971;28;45367;-64
2024/02/04 03:24:08;;;;;;;;;0.25;0.25;;;;;11.72;80.71;102437.00;5040826;28;67859;-65
2024/02/04 03:26:34;;;;;;;;;1.25;1.25;;;;;11.72;80.33;102437.91;5042298;28;45472;-65
2024/02/04 03:28:59;;;;;;;;;1.50;1.00;;;;;11.71;80.76;102441.41;5041883;28;46305;-65
2024/02/04 03:31:25;;;;;;;;;3.00;1.75;;;;;11.69;80.71;102447.53;5041595;28;45438;-65
2024/02/04 03:33:50;;;;;;;;;4.00;1.00;;;;;11.65;80.92;102449.31;5042051;28;45288;-64
2024/02/04 03:36:19;;;;;;;;;0.50;0.50;;;;;11.66;80.99;102452.78;5044814;28;45435;-65
2024/02/04 03:38:44;;;;;;;;;2.00;0.50;;;;;11.64;81.18;102449.31;5041467;28;46195;-64
2024/02/04 03:41:10;;;;;;;;;1.00;1.00;;;;;11.63;81.11;102453.66;5042324;28;69647;-65
2024/02/04 03:43:38;;;;;;;;;2.00;0.50;;;;;11.61;80.96;102452.81;5041892;28;45351;-65
2024/02/04 03:46:03;;;;;;;;;1.00;1.00;;;;;11.60;81.00;102445.84;5040819;28;64774;-65
2024/02/04 03:48:29;;;;;;;;;1.50;0.00;;;;;11.62;80.85;102445.81;5041453;28;47108;-65
2024/02/04 03:50:54;;;;;;;;;0.25;0.25;;;;;11.63;81.19;102437.94;5041383;28;53788;-65
2024/02/04 03:53:21;;;;;;;;;0.00;0.00;;;;;11.64;81.00;102444.06;5041472;28;58750;-65
2024/02/04 03:55:46;;;;;;;;;2.00;0.75;;;;;11.63;81.21;102443.16;5041843;28;45918;-64
2024/02/04 03:58:11;;;;;;;;;0.75;0.75;;;;;11.65;81.32;102451.94;5041495;28;46280;-65
2024/02/04 04:00:37;;;;;;;;;0.25;0.25;;;;;11.66;81.43;102455.41;5040386;28;73490;-65
2024/02/04 04:03:02;;;;;;;;;1.00;0.00;;;;;11.64;81.06;102454.56;5040684;28;63131;-65
2024/02/04 04:05:28;;;;;;;;;2.50;1.00;;;;;11.63;81.65;102463.28;5042060;28;45232;-64
2024/02/04 04:07:53;;;;;;;;;0.75;0.75;;;;;11.60;81.38;102458.94;5041443;28;46157;-65
2024/02/04 04:10:18;;;;;;;;;0.50;0.25;;;;;11.61;82.17;102470.28;5044342;28;73043;-65
2024/02/04 04:12:44;;;;;;;;;1.25;1.25;;;;;11.59;82.21;102471.16;5041986;28;57173;-64
2024/02/04 04:15:09;;;;;;;;;2.00;0.00;;;;;11.57;81.90;102465.03;5039359;28;64822;-64
2024/02/04 04:17:34;;;;;;;;;2.00;0.50;;;;;11.58;82.34;102464.19;5040976;28;49809;-64
2024/02/04 04:19:59;;;;;;;;;1.00;0.00;;;;;11.59;81.86;102465.91;5040090;28;70199;-64
2024/02/04 04:22:25;;;;;;;;;1.75;0.00;;;;;11.59;82.44;102462.44;5040081;28;68335;-64
2024/02/04 04:24:50;;;;;;;;;0.75;0.75;;;;;11.58;82.31;102458.94;5040451;28;63036;-64
2024/02/04 04:27:15;;;;;;;;;4.75;1.00;;;;;11.57;82.71;102459.81;5043459;28;73266;-64
2024/02/04 04:29:41;;;;;;;;;1.25;0.00;;;;;11.58;82.65;102461.56;5040341;28;68711;-64
2024/02/04 04:32:06;;;;;;;;;4.75;0.50;;;;;11.58;82.99;102458.94;5039931;28;67666;-64
2024/02/04 04:34:31;;;;;;;;;0.00;0.00;;;;;11.61;82.51;102454.56;5040221;28;70855;-64
2024/02/04 04:36:57;;;;;;;;;2.50;0.00;;;;;11.61;82.43;102449.31;5040473;28;54150;-64
2024/02/04 04:39:22;;;;;;;;;0.75;0.25;;;;;11.61;82.73;102449.31;5044259;28;46385;-65
2024/02/04 04:41:47;;;;;;;;;0.50;0.50;;;;;11.62;82.80;102456.31;5038327;28;65825;-65
2024/02/04 04:44:13;;;;;;;;;2.00;0.25;;;;;11.61;83.14;102452.81;5041241;28;51586;-64
2024/02/04 04:46:41;;;;;;;;;0.75;0.50;;;;;11.62;83.07;102457.19;5039849;28;65198;-64
2024/02/04 04:49:06;;;;;;;;;0.25;0.00;;;;;11.65;83.35;102454.56;5040965;28;45336;-65
2024/02/04 04:51:32;;;;;;;;;2.50;0.00;;;;;11.65;83.25;102461.53;5039861;28;69321;-65
2024/02/04 04:53:57;;;;;;;;;3.00;1.00;;;;;11.62;82.95;102461.56;5056061;28;45616;-65
2024/02/04 04:56:23;;;;;;;;;0.00;0.00;;;;;11.58;83.27;102465.94;5050044;28;46495;-66
2024/02/04 04:58:49;;;;;;;;;3.25;0.00;;;;;11.59;83.19;102475.53;5040256;28;54203;-65
2024/02/04 05:01:15;;;;;;;;;0.00;0.00;;;;;11.59;83.30;102462.44;5042485;28;45442;-64
2024/02/04 05:03:40;;;;;;;;;0.75;0.75;;;;;11.57;83.51;102461.56;5039415;28;45647;-64
2024/02/04 05:06:05;;;;;;;;;2.00;0.00;;;;;11.59;83.46;102457.19;5039278;28;75476;-64
2024/02/04 05:08:31;;;;;;;;;2.50;0.00;;;;;11.58;83.39;102455.47;5039797;28;61884;-64
2024/02/04 05:10:56;;;;;;;;;1.00;0.00;;;;;11.61;84.91;102457.19;5040633;28;45417;-64
2024/02/04 05:13:21;;;;;;;;;0.00;0.00;;;;;11.59;83.38;102458.03;5039323;28;66769;-65
2024/02/04 05:15:47;;;;;;;;;0.75;0.75;;;;;11.58;83.11;102468.56;5040515;28;46223;-65
2024/02/04 05:18:12;;;;;;;;;1.00;0.00;;;;;11.55;82.85;102465.94;5043165;28;45350;-65
2024/02/04 05:20:37;;;;;;;;;2.00;0.50;;;;;11.55;83.48;102466.81;5042070;28;69536;-65
2024/02/04 05:23:03;;;;;;;;;0.00;0.00;;;;;11.52;82.97;102473.81;5039158;28;73283;-64
2024/02/04 05:25:28;;;;;;;;;0.00;0.00;;;;;11.52;83.53;102469.44;5040142;28;45288;-65
2024/02/04 05:27:54;;;;;;;;;0.00;0.00;;;;;11.53;82.99;102467.72;5040062;28;45259;-64
2024/02/04 05:30:19;;;;;;;;;0.00;0.00;;;;;11.53;83.50;102470.31;5039946;28;45391;-64
2024/02/04 05:32:44;;;;;;;;;1.00;0.00;;;;;11.54;83.09;102466.81;5040147;28;45320;-64
2024/02/04 05:35:10;;;;;;;;;0.75;0.00;;;;;11.57;83.73;102464.19;5040458;28;45266;-65
2024/02/04 05:37:36;;;;;;;;;0.00;0.00;;;;;11.59;83.38;102470.28;5040051;28;45220;-64
2024/02/04 05:40:02;;;;;;;;;0.00;0.00;;;;;11.57;83.09;102453.69;5043140;28;45486;-64
2024/02/04 05:42:27;;;;;;;;;0.00;0.00;;;;;11.63;83.36;102466.78;5072415;28;45541;-64
2024/02/04 05:44:52;;;;;;;;;0.00;0.00;;;;;11.62;82.94;102456.31;5039539;28;49476;-64
2024/02/04 05:47:18;;;;;;;;;0.00;0.00;;;;;11.62;83.07;102465.03;5039203;28;69190;-65
2024/02/04 05:49:44;;;;;;;;;0.00;0.00;;;;;11.62;83.65;102461.56;5039007;28;65800;-64
2024/02/04 05:52:09;;;;;;;;;0.00;0.00;;;;;11.62;83.51;102462.44;5030829;28;65511;-65
2024/02/04 05:54:39;;;;;;;;;0.00;0.00;;;;;11.61;83.40;102472.91;5042967;28;72542;-64
2024/02/04 05:57:04;;;;;;;;;1.00;0.00;;;;;11.57;83.09;102464.19;5029541;28;45267;-64
2024/02/04 05:59:30;;;;;;;;;2.00;0.00;;;;;11.57;83.18;102456.31;5038399;28;45315;-64
2024/02/04 06:01:55;;;;;;;;;1.50;1.00;;;;;11.57;83.20;102458.94;5044541;28;71956;-63
2024/02/04 06:04:20;;;;;;;;;2.00;0.00;;;;;11.56;83.07;102457.19;5053417;28;72624;-64
2024/02/04 06:06:46;;;;;;;;;0.75;0.00;;;;;11.56;83.40;102452.84;5039735;28;45369;-64
2024/02/04 06:09:11;;;;;;;;;0.00;0.00;;;;;11.59;83.51;102452.81;5038531;28;69603;-64
2024/02/04 06:11:36;;;;;;;;;0.25;0.25;;;;;11.59;83.70;102458.03;5038621;28;70928;-64
2024/02/04 06:14:02;;;;;;;;;0.00;0.00;;;;;11.59;83.86;102459.81;5038455;28;73468;-64
2024/02/04 06:16:27;;;;;;;;;0.00;0.00;;;;;11.60;83.58;102458.94;5038442;28;45269;-64
2024/02/04 06:18:55;;;;;;;;;2.00;0.00;;;;;11.61;83.59;102465.91;5071889;28;45344;-64
2024/02/04 06:21:20;;;;;;;;;0.00;0.00;;;;;11.61;83.48;102462.44;5038218;28;45543;-64
2024/02/04 06:23:46;;;;;;;;;0.00;0.00;;;;;11.63;83.25;102463.28;5070472;28;72799;-64
2024/02/04 06:26:11;;;;;;;;;0.00;0.00;;;;;11.62;83.07;102465.03;5044038;28;45267;-64
2024/02/04 06:28:36;;;;;;;;;1.00;0.75;;;;;11.61;83.37;102470.28;5044128;28;71629;-64
2024/02/04 06:31:02;;;;;;;;;0.00;0.00;;;;;11.59;83.03;102463.28;5040698;28;66565;-64
2024/02/04 06:33:27;;;;;;;;;0.00;0.00;;;;;11.59;83.37;102467.66;5075253;28;45466;-64
2024/02/04 06:35:53;;;;;;;;;0.00;0.00;;;;;11.57;83.50;102475.53;5043122;28;45280;-65
2024/02/04 06:38:18;;;;;;;;;1.00;1.00;;;;;11.56;83.03;102468.56;5041628;28;63757;-64
2024/02/04 06:40:44;;;;;;;;;2.00;0.00;;;;;11.51;83.39;102469.44;5047590;28;45245;-64
2024/02/04 06:43:09;;;;;;;;;0.00;0.00;;;;;11.50;83.41;102475.56;5044057;28;45981;-64
2024/02/04 06:45:34;;;;;;;;;1.00;0.00;;;;;11.48;82.88;102469.47;5042220;28;57527;-65
2024/02/04 06:48:00;;;;;;;;;0.00;0.00;;;;;11.47;82.69;102480.81;5041776;28;69436;-64
2024/02/04 06:50:25;;;;;;;;;1.00;0.00;;;;;11.45;83.13;102477.34;5042893;28;46042;-64
2024/02/04 06:52:50;;;;;;;;;2.00;0.00;;;;;11.43;82.87;102479.09;5042381;28;45273;-64
2024/02/04 06:55:16;;;;;;;;;0.00;0.00;;;;;11.42;82.98;102477.31;5042043;28;69856;-65
2024/02/04 06:57:41;;;;;;;;;1.00;0.00;;;;;11.42;82.89;102472.97;5042644;28;45216;-64
2024/02/04 07:00:11;;;;;;;;;1.75;0.00;;;;;11.42;83.16;102469.47;5044651;28;45460;-64
2024/02/04 07:02:36;;;;;;;;;1.00;0.00;;;;;11.41;82.76;102465.97;5046674;28;46329;-65
2024/02/04 07:05:02;;;;;;;;;0.00;0.00;;;;;11.41;82.77;102465.97;5042903;28;45331;-65
2024/02/04 07:07:27;;;;;;;;;0.00;0.00;;;;;11.40;83.17;102469.47;5041156;28;45269;-64
2024/02/04 07:09:52;;;;;;;;;3.50;0.00;;;;;11.40;83.03;102467.75;5073943;28;73220;-64
2024/02/04 07:12:18;;;;;;;;;0.00;0.00;;;;;11.37;82.73;102461.63;5041986;28;60732;-64
2024/02/04 07:14:43;;;;;;;;;0.50;0.00;;;;;11.38;83.83;102465.97;5041118;28;45234;-64
2024/02/04 07:17:09;;;;;;;;;0.00;0.00;;;;;11.37;82.69;102467.75;5040797;28;45292;-64
2024/02/04 07:19:35;;;;;;;;;0.75;0.00;;;;;11.37;83.35;102470.34;5042266;28;45484;-64
2024/02/04 07:22:01;;;;;;;;;0.00;0.00;;;;;11.37;83.05;102472.97;5057726;28;45389;-64
2024/02/04 07:24:26;;;;;;;;;0.00;0.00;;;;;11.39;83.02;102476.47;5042202;28;45417;-64
2024/02/04 07:26:51;;;;;;;;;1.00;0.00;;;;;11.41;83.26;102468.59;5041258;28;61642;-64
2024/02/04 07:29:16;;;;;;;;;0.00;0.00;;;;;11.42;82.89;102469.47;5040935;28;71457;-63
2024/02/04 07:31:42;;;;;;;;;0.00;0.00;;;;;11.44;82.78;102476.47;5040429;28;74717;-64
2024/02/04 07:34:07;;;;;;;;;0.00;0.00;;;;;11.42;83.16;102480.84;5042759;28;45224;-64
2024/02/04 07:36:33;;;;;;;;;2.00;0.00;;;;;11.46;82.89;102486.97;5041368;28;45407;-64
2024/02/04 07:38:59;;;;;;;;;0.00;0.00;;;;;11.47;82.81;102492.16;5040890;28;45550;-64
2024/02/04 07:41:24;;;;;;;;;0.00;0.00;;;;;11.49;83.06;102487.81;5046339;28;46370;-64
2024/02/04 07:43:50;;;;;;;;;0.00;0.00;;;;;11.51;82.66;102482.53;5041983;28;45343;-64
2024/02/04 07:46:15;;;;;;;;;0.00;0.00;;;;;11.54;82.85;102485.16;5040673;28;67307;-64
2024/02/04 07:48:40;;;;;;;;;2.50;0.00;;;;;11.53;83.07;102483.44;5041877;28;45331;-64
2024/02/04 07:51:09;;;;;;;;;2.50;0.00;;;;;11.52;82.52;102484.31;5041946;28;65872;-65
2024/02/04 07:53:36;;;;;;;;;0.00;0.00;;;;;11.50;82.81;102475.56;5041626;28;45666;-64
2024/02/04 07:56:03;;;;;;;;;0.50;0.00;;;;;11.52;82.46;102485.16;5043661;28;45213;-64
2024/02/04 07:58:28;;;;;;;;;1.00;0.75;;;;;11.53;83.05;102483.44;5044145;28;45553;-64
2024/02/04 08:00:54;;;;;;;;;1.25;0.00;;;;;11.54;83.04;102483.44;5041163;28;46498;-65
2024/02/04 08:03:19;;;;;;;;;0.25;0.00;;;;;11.54;83.05;102480.81;5041631;28;45406;-65
2024/02/04 08:05:44;;;;;;;;;1.75;0.00;;;;;11.56;82.60;102486.03;5041558;28;45633;-64
2024/02/04 08:08:10;;;;;;;;;0.00;0.00;;;;;11.58;82.76;102490.41;5040869;28;73328;-64
2024/02/04 08:10:35;;;;;;;;;0.00;0.00;;;;;11.62;82.40;102493.03;5072587;28;74299;-64
2024/02/04 08:13:00;;;;;;;;;0.50;0.50;;;;;11.64;82.79;102494.75;5040368;28;47767;-64
2024/02/04 08:15:26;;;;;;;;;0.00;0.00;;;;;11.67;82.75;102497.38;5041388;28;45323;-64
2024/02/04 08:17:51;;;;;;;;;0.00;0.00;;;;;11.70;82.46;102496.47;5040364;28;72280;-64
2024/02/04 08:20:18;;;;;;;;;0.75;0.00;;;;;11.72;82.24;102498.22;5040054;28;75699;-64
2024/02/04 08:22:43;;;;;;;;;0.00;0.00;;;;;11.76;82.46;102499.97;5041157;28;45730;-64
2024/02/04 08:25:11;;;;;;;;;0.50;0.00;;;;;11.78;81.92;102495.56;5043658;28;45312;-64
2024/02/04 08:27:37;;;;;;;;;0.00;0.00;;;;;11.81;81.99;102494.72;5041411;28;45259;-64
2024/02/04 08:30:02;;;;;;;;;0.00;0.00;;;;;11.80;81.99;102485.09;5039522;28;47338;-64
2024/02/04 08:32:28;;;;;;;;;0.00;0.00;;;;;11.85;82.09;102500.81;5041151;28;45309;-63
2024/02/04 08:34:53;;;;;;;;;0.00;0.00;;;;;11.85;81.96;102495.56;5040037;28;66588;-64
2024/02/04 08:37:19;;;;;;;;;1.50;0.00;;;;;11.83;81.92;102494.69;5040010;28;64146;-64
2024/02/04 08:39:45;;;;;;;;;0.00;0.00;;;;;11.85;82.07;102499.06;5042986;28;46217;-64
2024/02/04 08:42:10;;;;;;;;;0.25;0.00;;;;;11.88;81.68;102493.81;5040108;28;72167;-64
2024/02/04 08:44:36;;;;;;;;;4.00;0.75;;;;;11.88;81.63;102496.44;5043973;28;45333;-64
2024/02/04 08:47:01;;;;;;;;;0.00;0.00;;;;;11.91;81.57;102492.94;5040836;28;45292;-65
2024/02/04 08:49:27;;;;;;;;;0.00;0.00;;;;;11.94;81.99;102495.56;5039796;28;46369;-65
2024/02/04 08:51:52;;;;;;;;;0.00;0.00;;;;;11.95;81.60;102490.31;5040118;28;64555;-65
2024/02/04 08:54:17;;;;;;;;;0.00;0.00;;;;;11.99;81.57;102493.78;5039538;28;70467;-64
2024/02/04 08:56:43;;;;;;;;;1.75;0.00;;;;;12.02;81.22;102493.75;5040520;28;45597;-65
2024/02/04 08:59:08;;;;;;;;;1.00;0.00;;;;;12.01;81.09;102491.16;5042063;28;69589;-65
2024/02/04 09:01:33;;;;;;;;;0.00;0.00;;;;;12.00;81.33;102497.28;5039640;28;72182;-63
2024/02/04 09:03:59;;;;;;;;;1.00;0.25;;;;;12.01;80.87;102496.41;5044521;28;45231;-64
2024/02/04 09:06:24;;;;;;;;;1.00;1.00;;;;;12.06;81.12;102497.25;5041178;28;45385;-65
2024/02/04 09:08:49;;;;;;;;;0.00;0.00;;;;;12.11;81.00;102495.47;5038893;28;46219;-65
2024/02/04 09:11:18;;;;;;;;;2.00;0.75;;;;;12.18;80.51;102499.78;5039213;28;72199;-65
2024/02/04 09:13:44;;;;;;;;;0.00;0.00;;;;;12.19;80.22;102498.06;5040625;28;45421;-65
2024/02/04 09:16:10;;;;;;;;;1.00;1.00;;;;;12.18;79.98;102507.66;5040519;28;45461;-65
2024/02/04 09:18:36;;;;;;;;;0.00;0.00;;;;;12.22;80.30;102513.81;5055845;28;46617;-65
2024/02/04 09:21:01;;;;;;;;;0.00;0.00;;;;;12.27;79.63;102504.13;5040135;28;45745;-65
2024/02/04 09:23:27;;;;;;;;;1.50;0.25;;;;;12.29;79.45;102505.88;5072628;28;45429;-65
2024/02/04 09:25:52;;;;;;;;;2.00;0.00;;;;;12.27;79.52;102491.00;5063176;28;65447;-64
2024/02/04 09:28:17;;;;;;;;;0.00;0.00;;;;;12.35;79.13;102504.97;5039929;28;52082;-64
2024/02/04 09:30:43;;;;;;;;;0.00;0.00;;;;;12.39;78.53;102506.69;5039028;28;72482;-64
2024/02/04 09:33:08;;;;;;;;;0.00;0.00;;;;;12.39;78.88;102511.06;5042777;28;50980;-65
2024/02/04 09:35:34;;;;;;;;;0.25;0.25;;;;;12.39;78.39;102511.06;5040643;28;45591;-64
2024/02/04 09:37:59;;;;;;;;;1.75;0.00;;;;;12.41;78.06;102512.81;5039929;28;45527;-64
2024/02/04 09:40:25;;;;;;;;;2.50;0.00;;;;;12.41;78.19;102514.56;5045246;28;68298;-65
2024/02/04 09:42:52;;;;;;;;;2.50;1.00;;;;;12.45;78.02;102498.78;5039187;28;68625;-64
2024/02/04 09:45:17;;;;;;;;;1.25;0.25;;;;;12.52;77.68;102497.84;5039769;28;45449;-65
2024/02/04 09:47:44;;;;;;;;;0.00;0.00;;;;;12.59;77.39;102501.31;5039796;28;48324;-64
2024/02/04 09:50:10;;;;;;;;;1.00;0.00;;;;;12.63;77.16;102494.28;5073528;27;49370;-64
2024/02/04 09:52:39;;;;;;;;;0.25;0.00;;;;;12.65;77.04;102498.63;5039931;28;45486;-64
2024/02/04 09:55:07;;;;;;;;;0.00;0.00;;;;;12.64;76.93;102496.91;5039329;28;45237;-65
2024/02/04 09:57:34;;;;;;;;;1.00;0.00;;;;;12.65;76.62;102493.38;5039628;28;45276;-65
2024/02/04 09:59:59;;;;;;;;;0.50;0.00;;;;;12.68;77.08;102493.38;5080862;27;45556;-65
2024/02/04 10:02:25;;;;;;;;;1.00;1.00;;;;;12.72;77.10;102494.22;5080248;27;45450;-65
2024/02/04 10:04:51;;;;;;;;;0.00;0.00;;;;;12.75;76.73;102486.31;5071608;27;70368;-65
2024/02/04 10:07:18;;;;;;;;;13.50;11.00;;;;;12.79;76.31;102477.50;5043659;28;46064;-65
2024/02/04 10:09:46;;;;;;;;;3.00;3.00;;;;;12.83;75.87;102481.00;5071588;27;45767;-65
2024/02/04 10:12:12;;;;;;;;;1.75;0.25;;;;;12.83;76.42;102478.34;5038993;28;45207;-65
2024/02/04 10:14:37;;;;;;;;;0.00;0.00;;;;;12.82;75.85;102474.88;5040053;28;72615;-64
2024/02/04 10:17:04;;;;;;;;;0.00;0.00;;;;;12.84;75.70;102486.22;5039176;28;74415;-64
2024/02/04 10:19:30;;;;;;;;;0.75;0.00;;;;;12.88;75.48;102481.81;5041244;28;51148;-64
2024/02/04 10:22:02;;;;;;;;;0.00;0.00;;;;;12.89;75.13;102486.16;5041468;28;45307;-64
2024/02/04 10:24:28;;;;;;;;;1.25;0.25;;;;;12.89;74.93;102481.81;5041697;28;45485;-64
2024/02/04 10:26:55;;;;;;;;;1.00;0.75;;;;;12.90;74.74;102496.69;5042944;28;45363;-65
2024/02/04 10:29:21;;;;;;;;;3.00;0.75;;;;;12.95;74.98;102493.16;5041644;28;45346;-65
2024/02/04 10:31:47;;;;;;;;;0.00;0.00;;;;;12.95;74.83;102496.66;5043462;28;45484;-65
2024/02/04 10:34:12;;;;;;;;;2.50;1.50;;;;;12.97;74.30;102496.66;5040848;28;72146;-65
2024/02/04 10:36:37;;;;;;;;;1.00;1.00;;;;;13.05;74.73;102502.69;5041541;28;69105;-65
2024/02/04 10:39:04;;;;;;;;;1.25;0.00;;;;;13.13;74.23;102495.59;5041496;28;68785;-64
2024/02/04 10:41:29;;;;;;;;;1.00;1.00;;;;;13.21;73.52;102513.94;5044394;28;45383;-64
2024/02/04 10:43:55;;;;;;;;;2.25;1.50;;;;;13.25;73.66;102499.88;5072048;27;45240;-64
2024/02/04 10:46:22;;;;;;;;;1.00;0.00;;;;;13.27;73.03;102504.22;5038755;28;50463;-64
2024/02/04 10:49:03;;;;;;;;;2.50;1.00;;;;;13.28;73.16;102508.63;5071584;28;45211;-64
2024/02/04 10:51:30;;;;;;;;;0.25;0.00;;;;;13.33;72.82;102507.72;5039302;28;45486;-65
2024/02/04 10:53:56;;;;;;;;;2.25;1.00;;;;;13.35;72.46;102501.56;5071185;28;45802;-65
2024/02/04 10:56:30;;;;;;;;;0.00;0.00;;;;;13.42;72.59;102498.00;5037578;28;46888;-63
2024/02/04 10:58:56;;;;;;;;;0.00;0.00;;;;;13.45;72.52;102503.19;5042059;28;45960;-64
2024/02/04 11:01:23;;;;;;;;;1.00;1.00;;;;;13.45;72.52;102504.97;5039512;28;45265;-64
2024/02/04 11:03:50;;;;;;;;;2.25;0.75;;;;;13.39;72.21;102507.69;5039014;28;45209;-65
2024/02/04 11:06:16;;;;;;;;;1.00;0.50;;;;;13.32;72.06;102508.63;5070170;27;72808;-64
2024/02/04 11:08:42;;;;;;;;;0.50;0.50;;;;;13.26;72.17;102504.25;5037764;28;70686;-64
2024/02/04 11:11:07;;;;;;;;;0.00;0.00;;;;;13.25;72.44;102503.38;5038671;28;45259;-64
2024/02/04 11:13:34;;;;;;;;;0.00;0.00;;;;;13.34;72.38;102506.84;5040769;28;45401;-64
2024/02/04 11:16:03;;;;;;;;;20.50;14.25;;;;;13.40;71.74;102506.78;5045863;28;49428;-64
2024/02/04 11:18:49;;;;;;;;;6.50;3.00;;;;;13.45;71.85;102503.19;5046207;28;45355;-64